createdAt,value
2018-09-21T00:00:49.480Z,3.43
2018-09-21T00:03:19.829Z,3.00
2018-09-21T00:05:50.157Z,3.10
2018-09-21T00:08:20.733Z,3.47
2018-09-21T00:10:51.289Z,3.60
2018-09-21T00:13:21.628Z,3.43
2018-09-21T00:15:51.953Z,3.47
2018-09-21T00:18:22.323Z,3.17
2018-09-21T00:20:52.629Z,4.37
2018-09-21T00:23:22.980Z,3.53
2018-09-21T00:25:53.292Z,3.23
2018-09-21T00:28:23.648Z,3.57
2018-09-21T00:30:54.077Z,3.27
2018-09-21T00:33:24.628Z,3.67
2018-09-21T00:35:55.175Z,3.60
2018-09-21T00:38:25.513Z,3.80
2018-09-21T00:40:55.840Z,3.50
2018-09-21T00:43:26.229Z,3.40
2018-09-21T00:45:56.549Z,3.47
2018-09-21T00:48:26.890Z,2.90
2018-09-21T00:50:57.475Z,3.10
2018-09-21T00:53:28.090Z,3.30
2018-09-21T00:55:58.661Z,3.63
2018-09-21T00:58:28.969Z,2.70
2018-09-21T01:00:59.325Z,3.47
2018-09-21T01:03:29.881Z,4.03
2018-09-21T01:06:00.205Z,3.03
2018-09-21T01:08:30.525Z,3.73
2018-09-21T01:11:01.098Z,3.83
2018-09-21T01:13:31.396Z,3.87
2018-09-21T01:16:01.737Z,3.50
2018-09-21T01:18:32.073Z,3.27
2018-09-21T01:21:02.402Z,3.97
2018-09-21T01:23:32.721Z,3.80
2018-09-21T01:26:03.078Z,3.50
2018-09-21T01:28:33.852Z,3.57
2018-09-21T01:31:04.218Z,3.47
2018-09-21T01:33:34.520Z,2.97
2018-09-21T01:36:04.873Z,3.13
2018-09-21T01:38:35.192Z,3.67
2018-09-21T01:41:05.744Z,3.90
2018-09-21T01:43:36.062Z,3.70
2018-09-21T01:46:06.517Z,3.13
2018-09-21T01:48:36.829Z,3.13
2018-09-21T01:51:07.407Z,3.30
2018-09-21T01:53:37.720Z,3.87
2018-09-21T01:56:08.076Z,3.70
2018-09-21T01:58:38.377Z,3.70
2018-09-21T02:01:08.962Z,3.73
2018-09-21T02:03:39.509Z,3.57
2018-09-21T02:06:10.152Z,3.50
2018-09-21T02:08:40.509Z,2.90
2018-09-21T02:11:11.314Z,2.73
2018-09-21T02:13:41.657Z,2.97
2018-09-21T02:16:12.237Z,3.37
2018-09-21T02:18:42.552Z,3.47
2018-09-21T02:21:12.897Z,3.10
2018-09-21T02:23:43.206Z,3.67
2018-09-21T02:26:13.785Z,3.17
2018-09-21T02:28:44.106Z,3.50
2018-09-21T02:31:14.471Z,3.13
2018-09-21T02:33:44.780Z,3.63
2018-09-21T02:36:15.361Z,3.57
2018-09-21T02:38:45.681Z,3.40
2018-09-21T02:41:16.458Z,3.67
2018-09-21T02:43:46.965Z,3.83
2018-09-21T02:46:17.379Z,3.87
2018-09-21T02:48:47.736Z,3.30
2018-09-21T02:51:18.230Z,3.67
2018-09-21T02:53:48.532Z,3.90
2018-09-21T02:56:19.871Z,3.63
2018-09-21T02:58:51.111Z,3.80
2018-09-21T03:01:21.415Z,3.80
2018-09-21T03:03:52.131Z,3.43
2018-09-21T03:06:22.464Z,3.50
2018-09-21T03:08:52.768Z,3.00
2018-09-21T03:11:23.089Z,3.53
2018-09-21T03:13:53.389Z,3.80
2018-09-21T03:16:23.961Z,3.47
2018-09-21T03:18:54.245Z,3.17
2018-09-21T03:21:24.812Z,3.53
2018-09-21T03:23:55.112Z,3.70
2018-09-21T03:26:25.460Z,3.33
2018-09-21T03:28:56.597Z,3.80
2018-09-21T03:31:26.971Z,3.90
2018-09-21T03:33:57.270Z,3.53
2018-09-21T03:36:27.846Z,3.97
2018-09-21T03:38:58.396Z,3.87
2018-09-21T03:41:28.956Z,3.90
2018-09-21T03:43:59.289Z,3.80
2018-09-21T03:46:29.864Z,3.67
2018-09-21T03:49:00.449Z,3.47
2018-09-21T03:51:31.026Z,3.60
2018-09-21T03:54:01.354Z,3.70
2018-09-21T03:56:31.689Z,3.33
2018-09-21T03:59:02.224Z,4.00
2018-09-21T04:01:33.005Z,3.47
2018-09-21T04:04:03.589Z,3.40
2018-09-21T04:06:34.157Z,3.80
2018-09-21T04:09:06.909Z,3.77
2018-09-21T04:11:37.496Z,4.07
2018-09-21T04:14:07.813Z,3.60
2018-09-21T04:16:38.323Z,3.90
2018-09-21T04:19:08.625Z,4.10
2018-09-21T04:21:39.036Z,3.77
2018-09-21T04:24:09.581Z,4.17
2018-09-21T04:26:40.187Z,3.63
2018-09-21T04:29:10.514Z,3.80
2018-09-21T04:31:40.877Z,3.53
2018-09-21T04:34:11.196Z,3.97
2018-09-21T04:36:41.768Z,3.97
2018-09-21T04:39:12.969Z,3.60
2018-09-21T04:41:43.536Z,3.93
2018-09-21T04:44:13.849Z,3.83
2018-09-21T04:46:44.185Z,4.17
2018-09-21T04:49:14.520Z,4.50
2018-09-21T04:51:45.021Z,4.30
2018-09-21T04:54:15.584Z,4.47
2018-09-21T04:56:46.157Z,4.10
2018-09-21T04:59:16.466Z,4.07
2018-09-21T05:01:46.792Z,4.07
2018-09-21T05:04:17.123Z,4.03
2018-09-21T05:06:47.417Z,4.60
2018-09-21T05:09:17.989Z,4.50
2018-09-21T05:11:48.288Z,4.10
2018-09-21T05:14:18.907Z,3.80
2018-09-21T05:16:49.193Z,4.23
2018-09-21T05:19:19.763Z,4.30
2018-09-21T05:21:50.554Z,4.17
2018-09-21T05:24:21.124Z,4.10
2018-09-21T05:26:51.445Z,4.17
2018-09-21T05:29:21.804Z,3.53
2018-09-21T05:31:52.133Z,3.80
2018-09-21T05:34:22.514Z,3.97
2018-09-21T05:36:52.957Z,4.30
2018-09-21T05:39:23.276Z,4.03
2018-09-21T05:41:53.833Z,3.73
2018-09-21T05:44:24.154Z,3.80
2018-09-21T05:46:54.457Z,4.60
2018-09-21T05:49:25.036Z,4.17
2018-09-21T05:51:55.632Z,4.43
2018-09-21T05:54:26.104Z,4.87
2018-09-21T05:56:56.449Z,4.00
2018-09-21T05:59:26.782Z,4.30
2018-09-21T06:01:57.383Z,4.30
2018-09-21T06:04:27.967Z,4.00
2018-09-21T06:06:58.312Z,4.17
2018-09-21T06:09:28.882Z,3.70
2018-09-21T06:11:59.180Z,3.93
2018-09-21T06:14:29.755Z,4.30
2018-09-21T06:17:00.309Z,3.97
2018-09-21T06:19:30.942Z,3.90
2018-09-21T06:22:01.384Z,3.93
2018-09-21T06:24:32.081Z,3.80
2018-09-21T06:27:02.627Z,3.87
2018-09-21T06:29:32.952Z,3.93
2018-09-21T06:32:03.514Z,3.80
2018-09-21T06:34:33.842Z,3.63
2018-09-21T06:37:04.149Z,3.57
2018-09-21T06:39:34.496Z,3.60
2018-09-21T06:42:04.824Z,3.47
2018-09-21T06:44:35.592Z,3.43
2018-09-21T06:47:06.145Z,3.70
2018-09-21T06:49:36.463Z,3.47
2018-09-21T06:52:06.856Z,3.60
2018-09-21T06:54:37.184Z,4.00
2018-09-21T06:57:07.715Z,4.00
2018-09-21T06:59:38.036Z,3.83
2018-09-21T07:02:08.365Z,3.60
2018-09-21T07:04:38.936Z,3.17
2018-09-21T07:07:09.477Z,3.70
2018-09-21T07:09:40.054Z,4.13
2018-09-21T07:12:10.373Z,3.70
2018-09-21T07:14:41.147Z,3.40
2018-09-21T07:17:11.436Z,3.87
2018-09-21T07:19:41.753Z,4.23
2018-09-21T07:22:12.313Z,4.87
2018-09-21T07:24:42.645Z,3.70
2018-09-21T07:27:13.188Z,4.00
2018-09-21T07:29:43.520Z,4.03
2018-09-21T07:32:13.868Z,3.83
2018-09-21T07:34:44.230Z,4.03
2018-09-21T07:37:14.521Z,3.67
2018-09-21T07:39:45.096Z,3.93
2018-09-21T07:42:15.601Z,3.57
2018-09-21T07:44:46.022Z,3.93
2018-09-21T07:47:16.321Z,3.57
2018-09-21T07:49:46.640Z,3.97
2018-09-21T07:52:16.968Z,3.70
2018-09-21T07:54:47.408Z,3.43
2018-09-21T07:57:18.075Z,3.97
2018-09-21T07:59:48.397Z,3.53
2018-09-21T08:02:18.723Z,4.00
2018-09-21T08:04:49.017Z,4.03
2018-09-21T08:07:19.386Z,3.87
2018-09-21T08:09:49.872Z,4.07
2018-09-21T08:12:20.464Z,3.53
2018-09-21T08:14:50.765Z,3.30
2018-09-21T08:17:21.084Z,3.53
2018-09-21T08:19:51.388Z,3.67
2018-09-21T08:22:21.704Z,4.10
2018-09-21T08:24:52.234Z,4.20
2018-09-21T08:27:22.765Z,3.60
2018-09-21T08:29:53.068Z,3.97
2018-09-21T08:32:23.400Z,3.80
2018-09-21T08:34:53.700Z,3.97
2018-09-21T08:37:24.383Z,3.53
2018-09-21T08:39:55.020Z,3.67
2018-09-21T08:42:25.601Z,3.67
2018-09-21T08:44:55.909Z,3.77
2018-09-21T08:47:26.280Z,3.50
2018-09-21T08:49:56.692Z,3.63
2018-09-21T08:52:27.037Z,4.10
2018-09-21T08:54:57.371Z,3.63
2018-09-21T08:57:28.202Z,3.90
2018-09-21T08:59:58.518Z,3.90
2018-09-21T09:02:29.117Z,3.90
2018-09-21T09:04:59.513Z,3.80
2018-09-21T09:07:29.861Z,4.20
2018-09-21T09:10:00.430Z,3.87
2018-09-21T09:12:31.012Z,3.90
2018-09-21T09:15:01.574Z,3.83
2018-09-21T09:17:31.924Z,3.57
2018-09-21T09:20:02.270Z,4.03
2018-09-21T09:22:32.656Z,3.73
2018-09-21T09:25:03.019Z,3.97
2018-09-21T09:27:33.801Z,4.30
2018-09-21T09:30:05.085Z,3.80
2018-09-21T09:32:35.853Z,3.77
2018-09-21T09:35:12.557Z,3.80
2018-09-21T09:37:42.889Z,3.70
2018-09-21T09:40:13.458Z,3.90
2018-09-21T09:42:43.836Z,3.57
2018-09-21T09:45:14.452Z,3.33
2018-09-21T09:47:44.896Z,3.60
2018-09-21T09:50:15.207Z,3.40
2018-09-21T09:52:45.537Z,3.57
2018-09-21T09:55:15.856Z,3.80
2018-09-21T09:57:46.212Z,4.00
2018-09-21T10:00:20.633Z,4.00
2018-09-21T10:02:50.973Z,4.20
2018-09-21T10:05:21.301Z,3.83
2018-09-21T10:07:51.637Z,3.53
2018-09-21T10:10:22.033Z,3.63
2018-09-21T10:12:52.532Z,4.33
2018-09-21T10:15:23.108Z,3.50
2018-09-21T10:17:53.455Z,3.40
2018-09-21T10:20:23.771Z,3.17
2018-09-21T10:22:54.133Z,3.37
2018-09-21T10:25:24.747Z,3.03
2018-09-21T10:27:55.196Z,3.13
2018-09-21T10:30:25.652Z,3.53
2018-09-21T10:32:56.006Z,3.20
2018-09-21T10:35:26.456Z,3.17
2018-09-21T10:37:56.873Z,2.97
2018-09-21T10:40:27.266Z,3.00
2018-09-21T10:42:58.009Z,2.77
2018-09-21T10:45:28.510Z,2.90
2018-09-21T10:47:58.856Z,3.60
2018-09-21T10:50:29.194Z,3.30
2018-09-21T10:52:59.781Z,3.00
2018-09-21T10:55:30.349Z,3.03
2018-09-21T10:58:00.941Z,2.60
2018-09-21T11:00:31.578Z,2.63
2018-09-21T11:03:02.313Z,2.70
2018-09-21T11:05:32.878Z,2.90
2018-09-21T11:08:03.297Z,2.63
2018-09-21T11:10:33.608Z,2.60
2018-09-21T11:13:04.037Z,2.93
2018-09-21T11:15:34.505Z,2.70
2018-09-21T11:18:05.156Z,2.57
2018-09-21T11:20:35.703Z,2.20
2018-09-21T11:23:06.223Z,2.50
2018-09-21T11:25:36.797Z,2.93
2018-09-21T11:28:07.394Z,2.67
2018-09-21T11:30:37.692Z,2.50
2018-09-21T11:33:08.054Z,2.70
2018-09-21T11:35:38.880Z,2.53
2018-09-21T11:38:09.297Z,2.27
2018-09-21T11:40:39.632Z,2.60
2018-09-21T11:43:09.976Z,2.37
2018-09-21T11:45:40.532Z,2.17
2018-09-21T11:48:10.881Z,2.60
2018-09-21T11:50:41.428Z,2.60
2018-09-21T11:53:11.780Z,2.80
2018-09-21T11:55:42.332Z,2.47
2018-09-21T11:58:12.934Z,2.70
2018-09-21T12:00:43.516Z,2.47
2018-09-21T12:03:13.849Z,2.57
2018-09-21T12:05:44.173Z,2.23
2018-09-21T12:08:18.868Z,2.40
2018-09-21T12:10:49.198Z,2.40
2018-09-21T12:13:19.538Z,2.33
2018-09-21T12:15:49.893Z,2.30
2018-09-21T12:18:20.446Z,2.83
2018-09-21T12:20:51.009Z,2.50
2018-09-21T12:23:21.618Z,2.27
2018-09-21T12:25:51.941Z,2.20
2018-09-21T12:28:22.529Z,2.50
2018-09-21T12:30:52.849Z,2.23
2018-09-21T12:33:23.472Z,2.33
2018-09-21T12:35:54.067Z,2.40
2018-09-21T12:38:25.256Z,2.33
2018-09-21T12:40:55.817Z,2.40
2018-09-21T12:43:26.421Z,2.40
2018-09-21T12:45:56.783Z,2.50
2018-09-21T12:48:27.134Z,2.10
2018-09-21T12:50:57.499Z,2.23
2018-09-21T12:53:28.009Z,1.93
2018-09-21T12:55:58.329Z,1.90
2018-09-21T12:58:28.736Z,1.93
2018-09-21T13:00:59.216Z,2.00
2018-09-21T13:03:29.784Z,2.00
2018-09-21T13:06:00.138Z,1.80
2018-09-21T13:08:30.456Z,1.73
2018-09-21T13:11:00.797Z,2.00
2018-09-21T13:13:31.341Z,1.80
2018-09-21T13:16:01.701Z,1.97
2018-09-21T13:18:32.053Z,1.60
2018-09-21T13:21:02.661Z,1.70
2018-09-21T13:23:32.981Z,1.80
2018-09-21T13:26:03.584Z,1.93
2018-09-21T13:28:34.094Z,1.73
2018-09-21T13:31:04.847Z,1.97
2018-09-21T13:33:35.429Z,2.03
2018-09-21T13:36:06.000Z,1.83
2018-09-21T13:38:37.992Z,2.10
2018-09-21T13:41:08.427Z,2.37
2018-09-21T13:43:39.032Z,1.90
2018-09-21T13:46:09.362Z,2.10
2018-09-21T13:48:39.949Z,1.90
2018-09-21T13:51:10.528Z,1.93
2018-09-21T13:53:40.849Z,1.90
2018-09-21T13:56:11.573Z,1.80
2018-09-21T13:58:41.861Z,1.43
2018-09-21T14:01:12.210Z,1.87
2018-09-21T14:03:42.528Z,1.67
2018-09-21T14:06:12.862Z,1.23
2018-09-21T14:08:43.190Z,0.80
2018-09-21T14:11:13.529Z,0.80
2018-09-21T14:13:44.103Z,0.53
2018-09-21T14:16:14.445Z,0.63
2018-09-21T14:18:44.996Z,0.40
2018-09-21T14:21:15.623Z,0.50
2018-09-21T14:23:46.116Z,0.30
2018-09-21T14:26:16.476Z,0.20
2018-09-21T14:28:46.796Z,0.40
2018-09-21T14:31:17.211Z,0.40
2018-09-21T14:33:47.676Z,0.30
2018-09-21T14:36:18.040Z,0.30
2018-09-21T14:38:48.379Z,0.27
2018-09-21T14:41:18.715Z,0.30
2018-09-21T14:43:49.085Z,0.47
2018-09-21T14:46:38.224Z,0.30
2018-09-21T14:49:08.757Z,0.27
2018-09-21T14:51:39.072Z,0.30
2018-09-21T14:54:09.389Z,0.50
2018-09-21T14:56:39.960Z,0.60
2018-09-21T14:59:10.277Z,0.70
2018-09-21T15:01:40.853Z,0.60
2018-09-21T15:04:11.154Z,0.57
2018-09-21T15:06:41.737Z,0.60
2018-09-21T15:09:12.343Z,0.53
2018-09-21T15:11:42.737Z,0.77
2018-09-21T15:14:13.083Z,0.60
2018-09-21T15:16:43.397Z,0.60
2018-09-21T15:19:13.693Z,0.50
2018-09-21T15:21:44.024Z,0.70
2018-09-21T15:24:14.332Z,0.70
2018-09-21T15:26:44.900Z,0.70
2018-09-21T15:29:15.199Z,0.60
2018-09-21T15:31:45.553Z,0.53
2018-09-21T15:34:16.113Z,0.77
2018-09-21T15:36:46.808Z,0.83
2018-09-21T15:39:17.118Z,0.87
2018-09-21T15:41:47.460Z,0.97
2018-09-21T15:44:17.760Z,0.73
2018-09-21T15:46:48.096Z,0.70
2018-09-21T15:49:18.432Z,0.80
2018-09-21T15:51:49.049Z,0.70
2018-09-21T15:54:19.377Z,0.60
2018-09-21T15:56:49.696Z,0.50
2018-09-21T15:59:21.400Z,0.80
2018-09-21T16:01:51.728Z,0.53
2018-09-21T16:04:22.045Z,0.77
2018-09-21T16:06:52.380Z,0.60
2018-09-21T16:09:22.925Z,0.70
2018-09-21T16:11:53.268Z,0.67
2018-09-21T16:14:23.596Z,0.73
2018-09-21T16:16:54.116Z,0.80
2018-09-21T16:19:24.408Z,0.60
2018-09-21T16:21:54.744Z,0.90
2018-09-21T16:24:25.383Z,0.80
2018-09-21T16:26:56.090Z,1.20
2018-09-21T16:29:26.417Z,0.90
2018-09-21T16:31:57.006Z,0.80
2018-09-21T16:34:27.576Z,0.70
2018-09-21T16:36:57.913Z,0.90
2018-09-21T16:39:28.494Z,0.80
2018-09-21T16:41:59.094Z,0.50
2018-09-21T16:44:29.464Z,0.67
2018-09-21T16:47:00.786Z,0.73
2018-09-21T16:49:31.352Z,0.60
2018-09-21T16:52:01.670Z,0.70
2018-09-21T16:54:32.010Z,0.70
2018-09-21T16:57:02.577Z,0.63
2018-09-21T16:59:33.145Z,0.70
2018-09-21T17:02:03.725Z,0.83
2018-09-21T17:04:34.181Z,0.97
2018-09-21T17:07:04.813Z,1.00
2018-09-21T17:09:35.457Z,0.90
2018-09-21T17:12:05.888Z,0.90
2018-09-21T17:14:36.217Z,0.97
2018-09-21T17:17:06.536Z,1.10
2018-09-21T17:19:36.861Z,0.90
2018-09-21T17:22:07.453Z,1.27
2018-09-21T17:24:37.788Z,1.13
2018-09-21T17:27:08.108Z,0.93
2018-09-21T17:29:38.449Z,1.20
2018-09-21T17:32:09.040Z,1.03
2018-09-21T17:34:39.857Z,0.90
2018-09-21T17:37:10.807Z,1.00
2018-09-21T17:39:41.285Z,1.00
2018-09-21T17:42:11.585Z,1.13
2018-09-21T17:44:42.834Z,1.00
2018-09-21T17:47:13.131Z,1.03
2018-09-21T17:49:43.456Z,1.33
2018-09-21T17:52:13.766Z,1.13
2018-09-21T17:54:44.344Z,1.40
2018-09-21T17:57:14.906Z,1.13
2018-09-21T17:59:45.492Z,1.20
2018-09-21T18:02:16.061Z,1.60
2018-09-21T18:04:46.652Z,1.33
2018-09-21T18:07:19.832Z,1.67
2018-09-21T18:09:52.801Z,1.17
2018-09-21T18:12:23.108Z,1.30
2018-09-21T18:14:53.680Z,1.17
2018-09-21T18:17:23.992Z,0.90
2018-09-21T18:19:54.564Z,1.17
2018-09-21T18:22:25.127Z,0.93
2018-09-21T18:24:55.685Z,0.93
2018-09-21T18:27:26.238Z,1.10
2018-09-21T18:30:00.320Z,1.33
2018-09-21T18:32:30.656Z,1.10
2018-09-21T18:35:01.228Z,1.30
2018-09-21T18:37:31.557Z,1.30
2018-09-21T18:40:02.301Z,1.20
2018-09-21T18:42:32.580Z,1.13
2018-09-21T18:45:02.918Z,1.10
2018-09-21T18:47:33.208Z,1.40
2018-09-21T18:50:03.524Z,1.57
2018-09-21T18:52:34.073Z,1.30
2018-09-21T18:55:04.437Z,1.43
2018-09-21T18:57:34.749Z,1.50
2018-09-21T19:00:05.928Z,1.20
2018-09-21T19:02:36.733Z,1.50
2018-09-21T19:05:07.329Z,1.40
2018-09-21T19:07:37.647Z,1.30
2018-09-21T19:10:07.978Z,1.30
2018-09-21T19:12:38.590Z,1.10
2018-09-21T19:15:08.912Z,1.27
2018-09-21T19:17:39.240Z,1.40
2018-09-21T19:20:10.537Z,1.30
2018-09-21T19:22:40.848Z,1.20
2018-09-21T19:25:11.409Z,1.27
2018-09-21T19:27:42.037Z,1.17
2018-09-21T19:30:12.588Z,1.50
2018-09-21T19:32:42.924Z,1.33
2018-09-21T19:35:13.226Z,1.07
2018-09-21T19:37:43.548Z,1.20
2018-09-21T19:40:14.111Z,1.40
2018-09-21T19:42:44.503Z,1.40
2018-09-21T19:45:15.007Z,1.37
2018-09-21T19:47:45.469Z,1.13
2018-09-21T19:50:16.013Z,1.53
2018-09-21T19:52:46.604Z,1.80
2018-09-21T19:55:17.273Z,1.47
2018-09-21T19:57:47.688Z,1.33
2018-09-21T20:00:18.241Z,1.40
2018-09-21T20:02:48.569Z,1.40
2018-09-21T20:05:18.896Z,1.60
2018-09-21T20:07:49.222Z,1.33
2018-09-21T20:10:19.777Z,1.30
2018-09-21T20:12:50.104Z,1.10
2018-09-21T20:15:20.648Z,1.10
2018-09-21T20:17:51.400Z,1.13
2018-09-21T20:20:21.788Z,1.50
2018-09-21T20:22:52.113Z,1.53
2018-09-21T20:25:22.507Z,1.90
2018-09-21T20:27:52.965Z,1.37
2018-09-21T20:30:28.617Z,1.50
2018-09-21T20:33:04.280Z,1.20
2018-09-21T20:35:34.604Z,1.27
2018-09-21T20:38:05.181Z,1.50
2018-09-21T20:40:35.492Z,1.30
2018-09-21T20:43:05.817Z,1.33
2018-09-21T20:45:36.105Z,1.57
2018-09-21T20:48:06.450Z,1.20
2018-09-21T20:50:37.035Z,1.03
2018-09-21T20:53:07.378Z,1.07
2018-09-21T20:55:37.692Z,1.07
2018-09-21T20:58:08.037Z,1.00
2018-09-21T21:00:38.390Z,1.20
2018-09-21T21:03:08.733Z,1.30
2018-09-21T21:05:39.297Z,1.00
2018-09-21T21:08:09.884Z,1.27
2018-09-21T21:10:40.402Z,1.23
2018-09-21T21:13:10.984Z,1.20
2018-09-21T21:15:41.491Z,0.97
2018-09-21T21:18:12.074Z,1.17
2018-09-21T21:20:42.373Z,1.13
2018-09-21T21:23:12.958Z,1.40
2018-09-21T21:25:43.284Z,1.10
2018-09-21T21:28:13.621Z,0.90
2018-09-21T21:30:44.172Z,1.10
2018-09-21T21:33:14.786Z,1.10
2018-09-21T21:35:45.332Z,0.93
2018-09-21T21:38:15.676Z,0.93
2018-09-21T21:40:45.989Z,0.80
2018-09-21T21:43:16.313Z,0.67
2018-09-21T21:45:46.636Z,1.20
2018-09-21T21:48:16.964Z,0.90
2018-09-21T21:50:47.529Z,0.63
2018-09-21T21:53:18.116Z,0.80
2018-09-21T21:55:48.424Z,0.70
2018-09-21T21:58:18.754Z,0.60
2018-09-21T22:00:54.300Z,0.70
2018-09-21T22:03:24.872Z,0.77
2018-09-21T22:05:55.426Z,0.60
2018-09-21T22:08:25.796Z,0.77
2018-09-21T22:10:56.139Z,1.00
2018-09-21T22:13:32.074Z,0.90
2018-09-21T22:16:02.389Z,1.10
2018-09-21T22:18:32.965Z,0.67
2018-09-21T22:21:03.301Z,0.80
2018-09-21T22:23:33.682Z,0.80
2018-09-21T22:26:04.261Z,0.77
2018-09-21T22:28:34.872Z,0.80
2018-09-21T22:31:05.801Z,0.87
2018-09-21T22:33:36.176Z,0.77
2018-09-21T22:36:06.782Z,0.87
2018-09-21T22:38:37.414Z,0.90
2018-09-21T22:41:07.732Z,1.03
2018-09-21T22:43:38.313Z,1.10
2018-09-21T22:46:08.900Z,0.90
2018-09-21T22:48:39.521Z,0.80
2018-09-21T22:51:10.070Z,0.90
2018-09-21T22:53:41.294Z,1.00
2018-09-21T22:56:11.685Z,1.10
2018-09-21T22:58:42.034Z,1.00
2018-09-21T23:01:12.332Z,0.93
2018-09-21T23:03:42.931Z,1.00
2018-09-21T23:06:13.493Z,1.00
2018-09-21T23:08:43.843Z,1.00
2018-09-21T23:11:14.159Z,0.90
2018-09-21T23:13:44.746Z,1.07
2018-09-21T23:16:15.053Z,1.30
2018-09-21T23:18:45.400Z,1.30
2018-09-21T23:21:15.974Z,1.10
2018-09-21T23:23:46.544Z,0.80
2018-09-21T23:26:17.112Z,1.10
2018-09-21T23:28:47.680Z,1.03
2018-09-21T23:31:17.999Z,1.00
2018-09-21T23:33:48.565Z,0.80
2018-09-21T23:36:18.884Z,0.90
2018-09-21T23:38:49.469Z,0.90
2018-09-21T23:41:20.028Z,1.40
2018-09-21T23:43:50.358Z,0.90
2018-09-21T23:46:20.916Z,1.00
2018-09-21T23:48:51.273Z,0.80
2018-09-21T23:51:21.836Z,1.10
2018-09-21T23:53:52.200Z,0.90
2018-09-21T23:56:22.529Z,0.97
2018-09-21T23:58:53.120Z,1.10
